createdAt,value
2023-03-23T15:58:22.754Z,2.92
2023-03-23T16:01:26.269Z,3.28
2023-03-23T16:04:29.649Z,2.60
2023-03-23T16:07:32.110Z,2.97
2023-03-23T16:10:34.373Z,2.33
2023-03-23T16:13:36.443Z,2.50
2023-03-23T16:16:39.745Z,3.67
2023-03-23T16:19:42.392Z,2.60
2023-03-23T16:22:45.208Z,2.90
2023-03-23T16:25:47.587Z,2.97
2023-03-23T16:28:50.596Z,3.33
2023-03-23T16:31:53.765Z,2.80
2023-03-23T16:34:56.155Z,2.83
2023-03-23T16:38:08.256Z,2.80
2023-03-23T16:41:11.436Z,3.70
2023-03-23T16:44:21.706Z,2.90
2023-03-23T16:47:25.587Z,3.13
2023-03-23T16:50:28.919Z,3.25
2023-03-23T16:53:31.123Z,2.90
2023-03-23T16:56:33.139Z,3.73
2023-03-23T16:59:35.385Z,10.23
2023-03-23T17:02:38.111Z,8.75
2023-03-23T17:05:41.023Z,8.60
2023-03-23T17:08:43.240Z,6.93
2023-03-23T17:11:45.391Z,6.20
2023-03-23T17:14:47.482Z,5.65
2023-03-23T17:17:50.268Z,6.03
2023-03-23T17:20:53.606Z,6.22
2023-03-23T17:23:56.075Z,7.60
2023-03-23T17:26:58.145Z,6.37
2023-03-23T17:30:00.312Z,5.70
2023-03-23T17:33:03.021Z,14.60
2023-03-23T17:36:05.365Z,65.15
2023-03-23T17:39:07.578Z,33.37
2023-03-23T17:42:09.669Z,14.90
2023-03-23T17:45:12.179Z,11.38
2023-03-23T17:48:14.702Z,8.50
2023-03-23T17:51:16.657Z,8.80
2023-03-23T17:54:19.135Z,10.20
2023-03-23T17:57:21.244Z,10.90
2023-03-23T18:00:23.346Z,11.52
2023-03-23T18:03:26.205Z,10.00
2023-03-23T18:06:28.627Z,13.98
2023-03-23T18:09:31.032Z,10.33
2023-03-23T18:12:33.518Z,10.63
2023-03-23T18:15:37.272Z,10.90
2023-03-23T18:18:39.917Z,11.82
2023-03-23T18:21:43.849Z,11.48
2023-03-23T18:24:47.523Z,13.03
2023-03-23T18:27:49.847Z,12.93
2023-03-23T18:30:52.104Z,15.63
2023-03-23T18:33:55.326Z,20.95
2023-03-23T18:36:57.681Z,20.00
2023-03-23T18:39:59.681Z,21.57
2023-03-23T18:43:01.834Z,20.07
2023-03-23T18:46:04.426Z,19.75
2023-03-23T18:49:06.470Z,21.45
2023-03-23T18:52:08.378Z,20.90
2023-03-23T18:55:10.497Z,19.87
2023-03-23T18:58:12.591Z,19.87
2023-03-23T19:01:15.697Z,20.90
2023-03-23T19:04:22.375Z,19.70
2023-03-23T19:07:24.468Z,41.20
2023-03-23T19:10:26.828Z,44.77
2023-03-23T19:13:29.307Z,34.03
2023-03-23T19:16:32.226Z,24.73
2023-03-23T19:19:35.210Z,24.05
2023-03-23T19:22:38.100Z,28.40
2023-03-23T19:25:40.539Z,30.53
2023-03-23T19:29:21.475Z,23.37
2023-03-23T19:32:04.743Z,20.92
2023-03-23T19:35:06.890Z,20.73
2023-03-23T19:38:09.056Z,15.27
2023-03-23T19:41:11.628Z,15.60
2023-03-23T19:44:14.062Z,14.43
2023-03-23T19:47:16.494Z,14.45
2023-03-23T19:50:18.947Z,14.00
2023-03-23T19:53:21.280Z,13.38
2023-03-23T19:56:23.254Z,13.77
2023-03-23T19:59:25.487Z,13.90
2023-03-23T20:02:27.900Z,13.52
2023-03-23T20:05:30.040Z,13.88
2023-03-23T20:08:32.369Z,13.70
2023-03-23T20:11:35.150Z,14.60
2023-03-23T20:14:44.003Z,15.63
2023-03-23T20:17:46.250Z,14.98
2023-03-23T20:20:51.677Z,14.48
2023-03-23T20:23:55.258Z,14.48
2023-03-23T20:26:57.284Z,13.73
2023-03-23T20:29:59.300Z,13.80
2023-03-23T20:33:01.423Z,13.27
2023-03-23T20:36:04.099Z,14.07
2023-03-23T20:39:10.828Z,14.02
2023-03-23T20:42:13.474Z,14.03
2023-03-23T20:45:16.169Z,13.67
2023-03-23T20:48:18.149Z,13.88
2023-03-23T20:51:21.023Z,13.80
2023-03-23T20:54:24.679Z,13.30
2023-03-23T20:57:27.537Z,13.13
2023-03-23T21:00:30.071Z,13.30
2023-03-23T21:03:35.049Z,12.75
2023-03-23T21:06:37.317Z,13.57
2023-03-23T21:09:39.903Z,17.20
2023-03-23T21:12:41.877Z,16.23
2023-03-23T21:15:44.967Z,13.00
2023-03-23T21:18:47.673Z,14.50
2023-03-23T21:21:56.072Z,13.48
2023-03-23T21:25:02.687Z,13.15
2023-03-23T21:28:05.438Z,13.00
2023-03-23T21:31:07.498Z,11.87
2023-03-23T21:34:09.974Z,12.13
2023-03-23T21:37:12.323Z,12.88
2023-03-23T21:40:14.765Z,11.70
2023-03-23T21:43:16.903Z,12.40
2023-03-23T21:46:18.943Z,11.30
2023-03-23T21:49:21.008Z,12.10
2023-03-23T21:52:23.674Z,11.52
2023-03-23T21:55:29.611Z,12.45
2023-03-23T21:58:31.760Z,11.60
2023-03-23T22:01:36.817Z,11.33
2023-03-23T22:04:39.639Z,11.75
2023-03-23T22:07:44.025Z,10.45
2023-03-23T22:11:00.462Z,11.18
2023-03-23T22:14:03.559Z,11.60
2023-03-23T22:17:05.909Z,11.25
2023-03-23T22:20:08.917Z,10.98
2023-03-23T22:23:11.119Z,10.80
2023-03-23T22:26:14.178Z,9.87
2023-03-23T22:29:17.198Z,10.13
2023-03-23T22:32:19.916Z,10.25
2023-03-23T22:35:22.042Z,10.93
2023-03-23T22:38:24.580Z,11.60
2023-03-23T22:41:30.516Z,11.00
2023-03-23T22:44:33.131Z,10.65
2023-03-23T22:47:35.806Z,11.70
2023-03-23T22:50:37.963Z,10.70
2023-03-23T22:53:40.374Z,12.00
2023-03-23T22:56:43.028Z,11.43
2023-03-23T22:59:47.969Z,11.52
2023-03-23T23:02:49.993Z,11.55
2023-03-23T23:05:52.049Z,11.80
2023-03-23T23:08:54.215Z,10.80
2023-03-23T23:11:56.657Z,11.15
2023-03-23T23:14:58.862Z,11.70
2023-03-23T23:18:01.110Z,12.60
2023-03-23T23:21:07.661Z,11.55
2023-03-23T23:24:10.226Z,12.98
2023-03-23T23:27:12.357Z,12.52
2023-03-23T23:30:14.864Z,12.63
2023-03-23T23:33:17.080Z,12.93
2023-03-23T23:36:19.328Z,12.98
2023-03-23T23:39:21.708Z,12.67
2023-03-23T23:42:25.037Z,13.52
2023-03-23T23:45:28.315Z,13.82
2023-03-23T23:48:30.460Z,11.65
2023-03-23T23:51:33.793Z,13.27
2023-03-23T23:54:37.459Z,12.27
2023-03-23T23:57:39.867Z,11.18
